Time;durP1;ratioP1;P1;durP2;ratioP2;P2;SDS_P1;SDS_P2;PMS_P1;PMS_P2;Temp;Humidity;BMP_temperature;BMP_pressure;BME280_temperature;BME280_humidity;BME280_pressure;Samples;Min_cycle;Max_cycle;Signal;HPM_P1;HPM_P2
2022/06/16 00:02:05;;;;;;;3.20;2.90;;;;;;;19.15;66.13;97545.41;5088962;28;20195;-71
2022/06/16 00:04:32;;;;;;;4.03;2.80;;;;;;;19.42;65.41;97542.63;5087301;28;20200;-71
2022/06/16 00:06:59;;;;;;;5.07;2.90;;;;;;;19.63;64.92;97553.34;5070854;28;20207;-71
2022/06/16 00:09:26;;;;;;;5.47;3.10;;;;;;;19.71;64.23;97556.25;5087380;28;20196;-71
2022/06/16 00:11:54;;;;;;;7.67;3.10;;;;;;;19.76;64.23;97557.59;5089065;28;20317;-71
2022/06/16 00:14:27;;;;;;;5.40;3.90;;;;;;;19.77;65.23;97555.78;5088353;28;20199;-71
2022/06/16 00:16:55;;;;;;;4.93;3.90;;;;;;;19.68;68.18;97551.22;5087797;28;20245;-71
2022/06/16 00:19:22;;;;;;;4.47;3.60;;;;;;;19.58;68.39;97539.72;5089001;28;20608;-71
2022/06/16 00:21:49;;;;;;;4.77;3.97;;;;;;;19.65;68.73;97544.41;5087131;28;20199;-70
2022/06/16 00:24:16;;;;;;;4.13;3.73;;;;;;;19.64;68.76;97545.34;5088232;28;20227;-70
2022/06/16 00:26:43;;;;;;;4.90;3.80;;;;;;;19.62;69.32;97541.16;5087057;28;20196;-70
2022/06/16 00:29:10;;;;;;;4.23;3.50;;;;;;;19.75;68.29;97536.66;5088399;28;20199;-70
2022/06/16 00:31:37;;;;;;;6.70;4.03;;;;;;;19.79;68.70;97533.69;5087730;28;20234;-70
2022/06/16 00:34:04;;;;;;;5.57;4.13;;;;;;;19.80;68.87;97537.16;5087625;28;20553;-71
2022/06/16 00:36:34;;;;;;;5.40;4.20;;;;;;;19.61;69.44;97535.06;5070183;28;20675;-71
2022/06/16 00:39:02;;;;;;;5.27;4.43;;;;;;;19.47;70.02;97530.81;5086679;28;20293;-71
2022/06/16 00:41:29;;;;;;;6.00;4.10;;;;;;;19.64;69.34;97536.63;5070087;28;20671;-72
2022/06/16 00:44:00;;;;;;;7.43;4.40;;;;;;;19.65;69.78;97540.94;5086705;28;20224;-71
2022/06/16 00:46:30;;;;;;;4.53;4.13;;;;;;;19.58;69.76;97530.03;5069583;28;20360;-72
2022/06/16 00:49:06;;;;;;;5.13;4.10;;;;;;;19.52;70.13;97524.38;5068568;28;20218;-72
2022/06/16 00:51:43;;;;;;;5.80;4.03;;;;;;;19.75;69.20;97531.41;5067971;28;20628;-71
2022/06/16 00:54:23;;;;;;;4.97;4.33;;;;;;;19.74;68.92;97535.00;5087240;28;20217;-71
2022/06/16 00:56:52;;;;;;;5.50;4.10;;;;;;;19.70;69.05;97526.47;5085583;28;20211;-72
2022/06/16 00:59:21;;;;;;;5.07;4.57;;;;;;;19.57;69.40;97532.78;5087212;28;20210;-72
2022/06/16 01:01:49;;;;;;;6.93;5.00;;;;;;;19.32;70.22;97529.28;5086195;28;20191;-72
2022/06/16 01:07:37;;;;;;;5.63;5.07;;;;;;;19.28;70.31;97524.38;4985115;28;20236;-71
2022/06/16 01:10:06;;;;;;;6.87;5.63;;;;;;;18.93;70.75;97518.19;4967722;28;20689;-71
2022/06/16 01:15:30;;;;;;;6.90;4.97;;;;;;;18.97;71.40;97531.00;5087048;28;20197;-71
2022/06/16 01:18:06;;;;;;;7.00;5.40;;;;;;;19.13;70.63;97525.47;5085324;28;20201;-71
2022/06/16 01:20:51;;;;;;;6.50;4.93;;;;;;;19.19;70.17;97528.50;5086878;28;20194;-70
2022/06/16 01:23:31;;;;;;;5.47;4.90;;;;;;;18.91;70.63;97527.97;5086098;28;20323;-71
2022/06/16 01:26:21;;;;;;;7.20;5.57;;;;;;;18.95;71.15;97527.63;5085695;28;20252;-70
2022/06/16 01:29:11;;;;;;;6.53;5.47;;;;;;;19.14;70.10;97519.28;5086760;28;20261;-70
2022/06/16 01:32:02;;;;;;;7.50;5.97;;;;;;;19.16;69.71;97522.63;5067435;28;20207;-71
2022/06/16 01:34:44;;;;;;;8.10;6.10;;;;;;;19.15;69.69;97519.16;5067644;28;20222;-71
2022/06/16 01:37:23;;;;;;;6.57;5.67;;;;;;;19.14;69.19;97525.38;5068656;28;20707;-71
2022/06/16 01:40:09;;;;;;;7.63;5.67;;;;;;;18.80;70.54;97514.75;5067052;28;20206;-72
2022/06/16 01:42:43;;;;;;;8.10;6.10;;;;;;;18.46;71.62;97527.63;5068173;28;20191;-71
2022/06/16 01:45:18;;;;;;;8.03;6.23;;;;;;;18.27;72.65;97527.19;5026323;28;1194164;-71
2022/06/16 01:47:50;;;;;;;7.47;6.27;;;;;;;18.16;72.98;97524.44;5067918;28;20225;-71
2022/06/16 01:50:31;;;;;;;10.13;6.00;;;;;;;18.02;73.65;97518.47;5069436;28;20194;-71
2022/06/16 01:53:05;;;;;;;;;;;;;;;17.92;74.14;97523.50;5068330;28;20044;-71
2022/06/16 01:55:35;;;;;;;;;;;;;;;18.01;74.18;97522.03;5088017;28;20345;-71
2022/06/16 01:58:23;;;;;;;;;;;;;;;17.81;74.89;97520.75;5069499;28;20377;-71
2022/06/16 02:00:53;;;;;;;;;;;;;;;17.74;75.38;97515.06;5068385;28;19946;-71
2022/06/16 02:03:27;;;;;;;;;;;;;;;17.65;75.94;97518.31;5069759;28;19990;-71
2022/06/16 02:06:08;;;;;;;;;;;;;;;17.88;74.94;97517.63;5086491;28;19924;-71
2022/06/16 02:08:39;;;;;;;;;;;;;;;18.16;73.70;97510.50;5087992;28;20022;-71
2022/06/16 02:11:11;;;;;;;;;;;;;;;18.43;73.42;97513.84;5052827;28;19920;-72
2022/06/16 02:13:44;;;;;;;;;;;;;;;18.65;71.70;97503.56;5086750;28;19920;-72
2022/06/16 02:16:15;;;;;;;;;;;;;;;18.89;71.38;97508.88;5069830;28;19943;-72
2022/06/16 02:18:43;;;;;;;;;;;;;;;18.94;71.12;97512.00;5068593;28;20367;-72
2022/06/16 02:21:15;;;;;;;;;;;;;;;18.88;71.11;97508.00;5073501;28;19927;-72
2022/06/16 02:23:42;;;;;;;;;;;;;;;18.97;71.03;97506.53;5090547;28;19924;-72
2022/06/16 02:26:10;;;;;;;;;;;;;;;18.75;70.78;97475.75;5090724;28;19920;-72
2022/06/16 02:28:41;;;;;;;;;;;;;;;19.01;70.43;97513.22;5073224;28;19926;-72
2022/06/16 02:31:21;;;;;;;;;;;;;;;18.99;70.11;97513.34;5089935;28;20292;-72
2022/06/16 02:34:21;;;;;;;;;;;;;;;18.96;70.64;97520.63;5091233;28;19978;-71
2022/06/16 02:36:54;;;;;;;;;;;;;;;18.94;70.44;97518.06;5046291;28;19920;-71
2022/06/16 02:39:24;;;;;;;;;;;;;;;18.79;70.67;97516.56;5071867;28;19927;-71
2022/06/16 02:42:14;;;;;;;;;;;;;;;18.57;71.26;97519.00;5072990;28;19943;-71
2022/06/16 02:44:54;;;;;;;;;;;;;;;18.61;71.26;97523.94;5089523;28;19926;-71
2022/06/16 02:47:50;;;;;;;;;;;;;;;18.48;71.79;97531.00;5072902;28;20011;-70
2022/06/16 02:50:31;;;;;;;;;;;;;;;18.47;71.70;97528.47;5072773;28;19920;-70
2022/06/16 02:53:07;;;;;;;;;;;;;;;18.23;72.15;97527.50;5089269;28;19954;-70
2022/06/16 02:55:37;;;;;;;;;;;;;;;17.80;73.85;97526.94;5090845;28;20475;-71
2022/06/16 02:58:04;;;;;;;;;;;;;;;17.67;74.80;97524.31;5089814;28;19950;-71
2022/06/16 03:00:45;;;;;;;;;;;;;;;17.79;74.20;97526.09;5071836;28;19920;-71
2022/06/16 03:03:20;;;;;;;;;;;;;;;17.87;74.22;97536.91;5072398;28;19920;-71
2022/06/16 03:05:55;;;;;;;;;;;;;;;17.91;73.72;97529.66;5054234;28;19926;-71
2022/06/16 03:08:23;;;;;;;;;;;;;;;18.04;73.31;97527.91;5090808;28;19920;-71
2022/06/16 03:10:53;;;;;;;;;;;;;;;18.15;73.19;97524.56;5071212;28;19928;-71
2022/06/16 03:13:23;;;;;;;;;;;;;;;18.35;72.54;97526.66;5072132;28;20292;-70
2022/06/16 03:15:52;;;;;;;;;;;;;;;18.30;72.12;97526.97;5090087;28;19927;-70
2022/06/16 03:18:20;;;;;;;;;;;;;;;17.96;72.54;97530.22;5070766;28;19920;-70
2022/06/16 03:20:47;;;;;;;;;;;;;;;17.95;73.37;97531.13;5072382;28;19964;-72
2022/06/16 03:23:14;;;;;;;;;;;;;;;17.94;72.91;97526.00;5070433;28;19920;-70
2022/06/16 03:25:43;;;;;;;;;;;;;;;18.00;73.18;97521.19;5072195;28;20002;-70
2022/06/16 03:28:12;;;;;;;;;;;;;;;18.21;72.19;97526.75;5088947;28;19926;-71
2022/06/16 03:30:41;;;;;;;;;;;;;;;18.29;71.83;97532.31;5070571;28;19920;-72
2022/06/16 03:33:11;;;;;;;;;;;;;;;18.10;71.92;97532.75;5071878;28;19993;-72
2022/06/16 03:35:40;;;;;;;;;;;;;;;17.91;72.88;97531.47;5070345;28;19969;-71
2022/06/16 03:38:49;;;;;;;;;;;;;;;17.75;73.53;97540.34;5071838;28;19931;-71
2022/06/16 03:40:58;;;;;;;;;;;;;;;17.78;73.75;97531.44;5061181;28;19943;-70
2022/06/16 03:43:26;;;;;;;;;;;;;;;17.66;74.36;97530.47;5071539;28;19920;-71
2022/06/16 03:45:57;;;;;;;;;;;;;;;17.93;74.03;97524.34;5071024;28;19919;-72
2022/06/16 03:48:24;;;;;;;;;;;;;;;18.33;72.60;97531.16;5070429;28;19920;-71
2022/06/16 03:50:51;;;;;;;;;;;;;;;18.53;71.57;97538.53;5071741;28;19920;-72
2022/06/16 03:53:18;;;;;;;;;;;;;;;19.10;70.34;97526.53;5069945;28;19920;-71
2022/06/16 03:55:53;;;;;;;;;;;;;;;19.56;68.00;97531.94;5071444;28;19955;-72
2022/06/16 03:58:24;;;;;;;;;;;;;;;19.96;67.28;97520.13;5054205;28;20379;-72
2022/06/16 04:00:51;;;;;;;;;;;;;;;20.16;66.35;97529.97;5071140;28;19924;-71
2022/06/16 04:06:13;;;;;;;;;;;;;;;20.99;63.89;97528.69;5069779;28;19928;-71
2022/06/16 04:08:44;;;;;;;;;;;;;;;21.26;62.91;97533.59;5071046;28;19920;-72
2022/06/16 04:11:45;;;;;;;;;;;;;;;21.40;61.90;97528.03;5087741;28;20322;-71
2022/06/16 04:14:08;;;;;;;;;;;;;;;21.40;62.12;97532.47;5067656;28;19924;-71
2022/06/16 04:16:45;;;;;;;;;;;;;;;21.63;62.60;97536.69;5071100;28;19920;-71
2022/06/16 04:19:16;;;;;;;;;;;;;;;21.94;61.08;97533.22;5074809;28;19920;-71
2022/06/16 04:21:46;;;;;;;;;;;;;;;22.02;60.98;97535.22;5090868;28;19930;-72
2022/06/16 04:24:20;;;;;;;;;;;;;;;21.93;61.05;97536.81;5074781;28;20390;-72
2022/06/16 04:26:48;;;;;;;;;;;;;;;22.04;62.02;97534.13;5090799;28;19943;-72
2022/06/16 04:29:15;;;;;;;;;;;;;;;22.27;61.41;97525.13;5091070;28;20010;-72
2022/06/16 04:31:44;;;;;;;;;;;;;;;22.30;61.94;97535.41;5073193;28;19920;-71
2022/06/16 04:34:13;;;;;;;;;;;;;;;22.62;60.43;97540.59;5070614;28;20205;-73
2022/06/16 04:36:41;;;;;;;;;;;;;;;22.42;60.70;97528.25;5085751;28;20046;-73
2022/06/16 04:39:13;;;;;;;;;;;;;;;22.63;60.60;97532.53;5087433;28;19939;-72
2022/06/16 04:41:44;;;;;;;;;;;;;;;22.18;61.64;97523.25;5086324;28;19920;-73
2022/06/16 04:44:13;;;;;;;;;;;;;;;22.67;61.49;97531.31;5070242;28;19920;-72
2022/06/16 04:46:43;;;;;;;;;;;;;;;22.97;59.75;97534.91;5086982;28;19920;-73
2022/06/16 04:49:13;;;;;;;;;;;;;;;22.98;59.86;97533.94;5085729;28;20205;-72
2022/06/16 04:51:43;;;;;;;;;;;;;;;22.33;61.12;97539.59;5087249;28;19974;-71
2022/06/16 04:54:12;;;;;;;;;;;;;;;22.46;61.34;97532.31;5085514;28;20272;-71
2022/06/16 04:56:44;;;;;;;;;;;;;;;22.55;60.75;97528.84;5086803;28;19920;-72
2022/06/16 04:59:31;;;;;;;;;;;;;;;22.77;60.15;97527.88;5087005;28;19966;-72
2022/06/16 05:02:24;;;;;;;;;;;;;;;22.94;58.74;97528.06;5070490;28;20314;-71
2022/06/16 05:05:09;;;;;;;;;;;;;;;23.08;59.03;97527.69;5088242;28;19927;-71
2022/06/16 05:08:08;;;;;;;;;;;;;;;23.29;58.93;97520.50;5053822;28;19927;-72
2022/06/16 05:10:53;;;;;;;;;;;;;;;23.48;58.35;97525.03;5085522;28;20010;-71
2022/06/16 05:13:38;;;;;;;;;;;;;;;23.55;57.44;97525.31;5086946;28;20449;-71
2022/06/16 05:16:28;;;;;;;;;;;;;;;22.96;57.63;97527.94;5087801;28;19927;-71
2022/06/16 05:19:13;;;;;;;;;;;;;;;22.95;58.02;97531.56;5086845;28;20018;-71
2022/06/16 05:22:06;;;;;;;;;;;;;;;23.41;57.12;97534.50;5085568;28;20028;-71
2022/06/16 05:25:12;;;;;;;;;;;;;;;23.60;57.16;97529.19;5075568;28;20398;-71
2022/06/16 05:28:14;;;;;;;;;;;;;;;23.64;56.16;97532.44;5023615;28;19961;-71
2022/06/16 05:30:44;;;;;;;;;;;;;;;23.27;56.47;97537.47;5076335;28;19920;-71
2022/06/16 05:33:31;;;;;;;;;;;;;;;22.75;58.29;97535.09;5085759;28;19920;-71
2022/06/16 05:36:33;;;;;;;;;;;;;;;22.89;58.73;97527.66;5065063;28;19966;-72
2022/06/16 05:39:12;;;;;;;;;;;;;;;22.65;58.89;97527.13;5086553;28;20295;-71
2022/06/16 05:41:57;;;;;;;;;;;;;;;22.41;59.04;97526.56;5086754;28;19942;-71
2022/06/16 05:44:44;;;;;;;;;;;;;;;22.89;59.06;97532.09;5064480;28;19920;-71
2022/06/16 05:47:20;;;;;;;;;;;;;;;23.21;57.16;97523.00;5086604;28;19920;-72
2022/06/16 05:49:50;;;;;;;;;;;;;;;23.14;56.45;97535.06;5084682;28;19927;-71
2022/06/16 05:52:19;;;;;;;;;;;;;;;22.97;56.87;97529.63;5086663;28;20018;-72
2022/06/16 05:54:59;;;;;;;;;;;;;;;22.85;57.07;97522.78;5088258;28;19920;-71
2022/06/16 05:57:28;;;;;;;;;;;;;;;22.64;56.13;97517.56;5089957;28;19920;-71
2022/06/16 05:59:55;;;;;;;;;;;;;;;23.09;54.52;97529.38;5090384;28;20014;-71
2022/06/16 06:02:22;;;;;;;;;;;;;;;23.00;55.42;97519.59;5089267;28;20398;-71
2022/06/16 06:04:49;;;;;;;;;;;;;;;23.42;53.61;97537.00;5073077;28;19920;-72
2022/06/16 06:07:16;;;;;;;;;;;;;;;23.66;51.46;97533.13;5088840;28;19920;-71
2022/06/16 06:18:20;;;;;;;;;;;;;;;24.07;48.22;97528.38;5074052;28;19977;-72
2022/06/16 06:20:46;;;;;;;;;;;;;;;23.81;49.75;97540.50;5091611;28;20284;-72
2022/06/16 06:23:14;;;;;;;;;;;;;;;23.98;49.37;97544.25;5073432;28;19920;-72
2022/06/16 06:25:41;;;;;;;;;;;;;;;24.00;48.75;97540.50;5090787;28;19920;-72
2022/06/16 06:28:11;;;;;;;;;;;;;;;24.09;48.83;97542.31;5091107;28;20300;-72
2022/06/16 06:30:38;;;;;;;;;;;;;;;24.52;47.82;97549.75;5074182;28;20453;-71
2022/06/16 06:33:05;;;;;;;;;;;;;;;24.65;47.23;97549.41;5090859;28;19920;-70
2022/06/16 06:35:32;;;;;;;;;;;;;;;24.98;47.14;97546.25;5092796;28;19927;-70
2022/06/16 06:38:00;;;;;;;;;;;;;;;25.21;47.06;97544.88;5056472;28;20303;-71
2022/06/16 06:40:29;;;;;;;;;;;;;;;25.36;46.56;97546.06;5093198;28;19927;-71
2022/06/16 06:42:56;;;;;;;;;;;;;;;25.53;46.27;97541.78;5096037;28;19929;-72
2022/06/16 06:45:23;;;;;;;;;;;;;;;25.16;47.96;97539.19;5097413;28;19920;-71
2022/06/16 06:47:50;;;;;;;;;;;;;;;24.84;48.60;97544.09;5105717;28;20074;-71
2022/06/16 06:50:25;;;;;;;;;;;;;;;25.10;47.86;97538.97;5086927;28;19916;-71
2022/06/16 06:52:52;;;;;;;;;;;;;;;24.83;47.78;97542.44;5106167;28;19920;-72
2022/06/16 06:55:20;;;;;;;;;;;;;;;24.64;48.80;97539.81;5096484;28;19935;-72
2022/06/16 06:57:47;;;;;;;;;;;;;;;24.00;50.01;97542.28;5073194;28;20338;-71
2022/06/16 07:00:15;;;;;;;;;;;;;;;24.36;49.45;97543.41;5091562;28;20032;-71
2022/06/16 07:02:42;;;;;;;;;;;;;;;24.72;50.19;97543.41;5089989;28;20584;-73
2022/06/16 07:05:10;;;;;;;;;;;;;;;25.06;48.92;97538.41;5091026;28;19924;-71
2022/06/16 07:07:44;;;;;;;;;;;;;;;24.73;50.38;97544.25;5090731;28;19920;-72
2022/06/16 07:10:12;;;;;;;;;;;;;;;24.46;51.74;97545.00;5091435;28;20301;-72
2022/06/16 07:12:39;;;;;;;;;;;;;;;24.89;51.24;97544.50;5090074;28;19920;-72
2022/06/16 07:15:06;;;;;;;;;;;;;;;25.10;50.92;97545.06;5089758;28;20435;-70
2022/06/16 07:17:33;;;;;;;;;;;;;;;24.89;51.53;97555.09;5089660;28;19920;-70
2022/06/16 07:20:00;;;;;;;;;;;;;;;25.18;50.83;97531.94;5070632;28;19920;-70
2022/06/16 07:22:28;;;;;;;;;;;;;;;24.85;51.79;97540.47;5089636;28;19960;-70
2022/06/16 07:24:55;;;;;;;;;;;;;;;25.05;51.57;97536.75;5088007;28;20194;-70
2022/06/16 07:27:22;;;;;;;;;;;;;;;25.15;51.57;97531.38;5089678;28;19926;-72
2022/06/16 07:29:49;;;;;;;;;;;;;;;25.24;51.60;97534.00;5089184;28;19952;-71
2022/06/16 07:32:18;;;;;;;;;;;;;;;24.86;51.50;97531.53;5089115;28;19960;-72
2022/06/16 07:34:45;;;;;;;;;;;;;;;25.04;50.85;97538.56;5089549;28;19929;-72
2022/06/16 07:37:12;;;;;;;;;;;;;;;24.89;51.49;97536.53;5088156;28;19977;-72
2022/06/16 07:39:39;;;;;;;;;;;;;;;25.35;51.21;97538.25;5071669;28;20426;-71
2022/06/16 07:42:08;;;;;;;;;;;;;;;24.96;51.99;97538.44;5087779;28;20307;-72
2022/06/16 07:44:36;;;;;;;;;;;;;;;25.26;50.49;97539.97;5088752;28;19924;-72
2022/06/16 07:47:03;;;;;;;;;;;;;;;24.44;52.64;97535.56;5087738;28;19920;-72
2022/06/16 07:49:31;;;;;;;;;;;;;;;25.03;50.87;97530.75;5053432;28;19919;-72
2022/06/16 07:51:58;;;;;;;;;;;;;;;25.38;50.51;97529.97;5088721;28;19924;-72
2022/06/16 07:54:25;;;;;;;;;;;;;;;25.88;49.85;97528.53;5087264;28;20397;-72
2022/06/16 07:57:13;;;;;;;;;;;;;;;26.22;48.22;97521.50;5088653;28;20010;-72
2022/06/16 07:59:51;;;;;;;;;;;;;;;26.51;47.17;97524.69;5087391;28;19920;-70
2022/06/16 08:02:17;;;;;;;;;;;;;;;26.51;48.06;97524.69;5088929;28;19919;-73
2022/06/16 08:04:45;;;;;;;;;;;;;;;25.97;48.31;97529.41;5088291;28;20371;-71
2022/06/16 08:07:13;;;;;;;;;;;;;;;26.00;48.21;97529.13;5068550;28;19920;-70
2022/06/16 08:09:39;;;;;;;;;;;;;;;25.67;49.22;97530.66;5070465;28;19924;-71
2022/06/16 08:12:10;;;;;;;;;;;;;;;25.99;48.05;97528.28;5068991;28;20064;-71
2022/06/16 08:14:41;;;;;;;;;;;;;;;26.21;47.83;97527.00;5070337;28;20011;-71
2022/06/16 08:17:10;;;;;;;;;;;;;;;26.37;47.08;97527.94;5086753;28;19924;-71
2022/06/16 08:19:40;;;;;;;;;;;;;;;26.61;47.07;97528.09;5069789;28;19920;-71
2022/06/16 08:22:07;;;;;;;;;;;;;;;26.72;46.32;97527.00;5088860;28;19954;-71
2022/06/16 08:24:35;;;;;;;;;;;;;;;26.57;45.71;97528.53;5087150;28;19927;-71
2022/06/16 08:27:02;;;;;;;;;;;;;;;26.30;46.64;97523.38;5088776;28;19920;-71
2022/06/16 08:29:29;;;;;;;;;;;;;;;26.53;46.27;97528.03;5068459;28;19920;-71
2022/06/16 08:31:57;;;;;;;;;;;;;;;26.63;45.03;97522.59;5088151;28;19927;-71
2022/06/16 08:34:24;;;;;;;;;;;;;;;26.78;44.89;97523.72;5087132;28;20457;-71
2022/06/16 08:36:51;;;;;;;;;;;;;;;26.88;44.82;97527.09;5087760;28;19926;-71
2022/06/16 08:39:18;;;;;;;;;;;;;;;26.75;44.30;97523.22;5087812;28;19927;-71
2022/06/16 08:41:47;;;;;;;;;;;;;;;27.05;43.13;97523.50;5068481;28;19965;-71
2022/06/16 08:44:17;;;;;;;;;;;;;;;27.18;43.35;97526.53;5087957;28;19919;-70
2022/06/16 08:46:54;;;;;;;;;;;;;;;27.21;43.29;97526.22;5067710;28;19934;-71
2022/06/16 08:49:27;;;;;;;;;;;;;;;26.94;43.97;97521.13;5087754;28;20590;-70
2022/06/16 08:52:00;;;;;;;;;;;;;;;27.02;43.17;97518.50;5069011;28;20245;-71
2022/06/16 08:54:34;;;;;;;;;;;;;;;27.17;43.21;97522.22;5086966;28;19977;-70
2022/06/16 08:57:01;;;;;;;;;;;;;;;27.15;43.72;97518.88;5070205;28;19989;-71
2022/06/16 08:59:51;;;;;;;;;;;;;;;27.33;42.67;97519.59;5086707;28;19931;-70
2022/06/16 09:02:35;;;;;;;;;;;;;;;26.88;43.92;97521.75;5059504;28;20419;-70
2022/06/16 09:05:11;;;;;;;;;;;;;;;27.12;43.58;97513.88;5087262;28;19924;-70
2022/06/16 09:07:44;;;;;;;;;;;;;;;27.29;44.29;97518.25;5086496;28;19926;-71
2022/06/16 09:10:23;;;;;;;;;;;;;;;27.14;43.41;97513.75;5087631;28;19927;-70
2022/06/16 09:12:57;;;;;;;;;;;;;;;25.86;44.27;97517.22;5067801;28;19924;-70
2022/06/16 09:15:37;;;;;;;;;;;;;;;26.30;44.37;97502.13;5088176;28;19920;-70
2022/06/16 09:18:19;;;;;;;;;;;;;;;25.66;44.79;97505.09;5069175;28;19969;-70
2022/06/16 09:20:49;;;;;;;;;;;;;;;25.98;44.50;97494.75;5086506;28;20314;-70
2022/06/16 09:23:30;;;;;;;;;;;;;;;26.20;43.47;97498.75;5088008;28;20423;-71
2022/06/16 09:26:15;;;;;;;;;;;;;;;26.25;44.31;97491.16;5086252;28;20378;-70
2022/06/16 09:28:57;;;;;;;;;;;;;;;26.54;44.16;97497.00;5089403;28;19920;-71
2022/06/16 09:31:28;;;;;;;;;;;;;;;26.24;44.63;97508.91;5091859;28;19935;-71
2022/06/16 09:34:01;;;;;;;;;;;;;;;25.95;44.42;97507.50;5090276;28;20308;-71
2022/06/16 09:36:31;;;;;;;;;;;;;;;26.00;44.87;97500.75;5092185;28;19927;-71
2022/06/16 09:39:05;;;;;;;;;;;;;;;26.50;43.16;97508.94;5090642;28;20391;-70
2022/06/16 09:44:47;;;;;;;;;;;;;;;26.46;42.62;97504.91;5090531;28;19970;-70
2022/06/16 09:47:16;;;;;;;;;;;;;;;26.34;43.29;97507.00;5090356;28;20323;-73
2022/06/16 09:49:45;;;;;;;;;;;;;;;26.27;42.69;97499.81;5091640;28;19974;-70
2022/06/16 09:52:38;;;;;;;;;;;;;;;26.15;42.99;97495.75;5091116;28;19920;-71
2022/06/16 09:55:09;;;;;;;;;;;;;;;26.14;43.58;97494.91;5072356;28;20610;-70
2022/06/16 09:57:45;;;;;;;;;;;;;;;26.09;43.38;97499.84;5091334;28;19938;-71
2022/06/16 10:00:20;;;;;;;;;;;;;;;25.93;43.12;97501.50;5090289;28;19977;-73
2022/06/16 10:02:47;;;;;;;;;;;;;;;26.20;43.34;97498.75;5091080;28;19920;-71
2022/06/16 10:05:33;;;;;;;;;;;;;;;26.12;42.27;97501.34;5090635;28;20003;-72
2022/06/16 10:08:20;;;;;;;;;;;;;;;26.50;42.24;97498.31;5055456;28;19926;-72
2022/06/16 10:10:53;;;;;;;;;;;;;;;26.47;41.96;97503.91;5091200;28;19920;-72
2022/06/16 10:13:40;;;;;;;;;;;;;;;26.37;41.99;97497.88;5089689;28;20472;-73
2022/06/16 10:16:11;;;;;;;;;;;;;;;26.60;42.08;97491.03;5090824;28;20365;-72
2022/06/16 10:18:39;;;;;;;;;;;;;;;26.64;41.51;97489.72;5090989;28;20062;-72
2022/06/16 10:21:07;;;;;;;;;;;;;;;26.61;40.88;97490.88;5089915;28;19924;-72
2022/06/16 10:23:41;;;;;;;;;;;;;;;26.90;40.66;97490.53;5072389;28;20007;-73
2022/06/16 10:26:09;;;;;;;;;;;;;;;26.64;40.25;97495.06;5089195;28;19920;-74
2022/06/16 10:28:48;;;;;;;;;;;;;;;26.70;40.84;97494.41;5091674;28;19959;-71
2022/06/16 10:31:16;;;;;;;;;;;;;;;26.70;40.18;97480.28;5089217;28;19948;-72
2022/06/16 10:33:54;;;;;;;;;;;;;;;26.68;40.50;97482.28;5089772;28;19935;-71
2022/06/16 10:36:23;;;;;;;;;;;;;;;26.76;40.22;97485.00;5072507;28;19943;-72
2022/06/16 10:39:17;;;;;;;;;;;;;;;26.88;39.59;97468.59;5089699;28;19997;-71
2022/06/16 10:41:53;;;;;;;;;;;;;;;27.43;39.26;97465.47;5090382;28;19920;-72
2022/06/16 10:44:22;;;;;;;;;;;;;;;27.82;39.07;97475.28;5089110;28;19927;-72
2022/06/16 10:46:52;;;;;;;;;;;;;;;27.73;38.16;97470.13;5071135;28;19960;-71
2022/06/16 10:49:20;;;;;;;;;;;;;;;27.83;38.30;97468.13;5090576;28;19920;-71
2022/06/16 10:51:53;;;;;;;;;;;;;;;27.76;38.38;97469.81;5089020;28;19927;-73
2022/06/16 10:54:23;;;;;;;;;;;;;;;26.87;36.14;97466.94;5056002;28;20288;-73
2022/06/16 10:57:03;;;;;;;;;;;;;;;26.54;36.93;97473.09;5054836;28;19931;-72
2022/06/16 10:59:29;;;;;;;;;;;;;;;26.22;37.65;97467.56;5088537;28;19920;-71
2022/06/16 11:02:02;;;;;;;;;;;;;;;26.08;38.00;97457.53;5089975;28;20022;-71
2022/06/16 11:04:38;;;;;;;;;;;;;;;26.35;37.42;97460.03;5088985;28;20018;-71
2022/06/16 11:07:09;;;;;;;;;;;;;;;26.75;39.16;97454.91;5090526;28;19920;-71
2022/06/16 11:09:37;;;;;;;;;;;;;;;26.98;38.30;97463.13;5088941;28;19926;-71
2022/06/16 11:12:06;;;;;;;;;;;;;;;27.23;37.78;97463.06;5090194;28;19959;-71
2022/06/16 11:14:36;;;;;;;;;;;;;;;27.20;38.42;97447.41;5090037;28;19920;-71
2022/06/16 11:17:07;;;;;;;;;;;;;;;27.29;38.74;97445.59;5089150;28;19920;-70
2022/06/16 11:19:47;;;;;;;;;;;;;;;27.75;38.18;97436.19;5072084;28;19920;-72
2022/06/16 11:22:40;;;;;;;;;;;;;;;27.83;38.52;97437.03;5088574;28;19950;-70
2022/06/16 11:25:19;;;;;;;;;;;;;;;27.89;39.03;97443.50;5083447;28;19920;-71
2022/06/16 11:27:48;;;;;;;;;;;;;;;28.06;38.77;97439.84;5089787;28;20002;-71
2022/06/16 11:30:30;;;;;;;;;;;;;;;28.23;38.46;97438.84;5088554;28;19984;-71
2022/06/16 11:32:58;;;;;;;;;;;;;;;28.32;38.32;97437.78;5055514;28;19993;-71
2022/06/16 11:35:34;;;;;;;;;;;;;;;28.35;37.70;97433.97;5070272;28;20395;-71
2022/06/16 11:38:06;;;;;;;;;;;;;;;28.30;38.12;97433.63;5089998;28;19926;-71
2022/06/16 11:40:42;;;;;;;;;;;;;;;28.11;37.77;97432.16;5089738;28;19998;-71
2022/06/16 11:43:40;;;;;;;;;;;;;;;27.87;37.30;97421.53;5069631;28;19927;-71
2022/06/16 11:46:19;;;;;;;;;;;;;;;27.72;37.61;97385.97;5089618;28;19927;-73
2022/06/16 11:48:56;;;;;;;;;;;;;;;28.01;37.43;97429.69;5070805;28;19920;-71
2022/06/16 11:51:35;;;;;;;;;;;;;;;27.25;38.26;97428.31;5086503;28;19920;-71
2022/06/16 11:54:18;;;;;;;;;;;;;;;27.47;38.68;97425.03;5089666;28;20336;-70
2022/06/16 11:56:49;;;;;;;;;;;;;;;27.65;39.59;97423.06;5087870;28;20385;-71
2022/06/16 11:59:16;;;;;;;;;;;;;;;27.87;39.58;97413.53;5089314;28;19920;-71
2022/06/16 12:01:46;;;;;;;;;;;;;;;27.95;39.36;97424.19;5069707;28;19985;-72
2022/06/16 12:04:34;;;;;;;;;;;;;;;27.98;38.84;97427.41;5088373;28;19920;-72
2022/06/16 12:07:13;;;;;;;;;;;;;;;28.26;38.57;97429.66;5087577;28;19924;-71
2022/06/16 12:09:56;;;;;;;;;;;;;;;28.07;37.90;97434.34;5069126;28;19937;-70
2022/06/16 12:12:34;;;;;;;;;;;;;;;27.73;38.59;97414.22;5088676;28;20007;-72
2022/06/16 12:15:19;;;;;;;;;;;;;;;27.90;38.73;97413.22;5088741;28;19920;-71
2022/06/16 12:18:05;;;;;;;;;;;;;;;27.91;38.20;97409.53;5068876;28;19924;-70
2022/06/16 12:20:32;;;;;;;;;;;;;;;28.09;37.93;97407.53;5088374;28;19956;-71
2022/06/16 12:23:40;;;;;;;;;;;;;;;28.03;38.61;97403.72;5087355;28;19926;-71
2022/06/16 12:26:20;;;;;;;;;;;;;;;27.64;39.58;97401.91;5024783;28;19928;-71
2022/06/16 12:28:57;;;;;;;;;;;;;;;27.50;39.39;97410.56;5081491;28;19931;-71
2022/06/16 12:31:49;;;;;;;;;;;;;;;27.32;39.57;97411.53;5035677;28;19920;-71
2022/06/16 12:34:25;;;;;;;;;;;;;;;27.11;40.47;97400.53;5087882;28;19927;-71
2022/06/16 12:36:53;;;;;;;;;;;;;;;27.16;40.14;97408.03;5088545;28;19927;-71
2022/06/16 12:39:24;;;;;;;;;;;;;;;27.26;39.91;97406.88;5087025;28;19920;-70
2022/06/16 12:41:55;;;;;;;;;;;;;;;26.78;39.37;97404.09;5070163;28;19919;-71
2022/06/16 12:44:32;;;;;;;;;;;;;;;26.61;40.19;97405.00;5086740;28;19920;-71
2022/06/16 12:47:11;;;;;;;;;;;;;;;26.90;39.43;97391.34;5088054;28;20309;-71
2022/06/16 12:49:47;;;;;;;;;;;;;;;27.39;39.61;97395.75;5088211;28;19981;-72
2022/06/16 12:52:37;;;;;;;;;;;;;;;27.69;39.00;97395.09;5086873;28;20022;-71
2022/06/16 12:55:04;;;;;;;;;;;;;;;27.08;40.12;97398.19;5080574;28;19987;-71
2022/06/16 12:57:34;;;;;;;;;;;;;;;27.56;39.79;97380.63;5087027;28;19927;-71
2022/06/16 13:00:07;;;;;;;;;;;;;;;27.70;39.37;97390.63;5088171;28;19927;-72
2022/06/16 13:02:36;;;;;;;;;;;;;;;27.70;39.08;97385.28;5087723;28;20371;-73
2022/06/16 13:05:09;;;;;;;;;;;;;;;27.57;39.31;97388.47;5086565;28;19919;-72
2022/06/16 13:07:41;;;;;;;;;;;;;;;27.48;40.20;97377.97;5088129;28;20432;-72
2022/06/16 13:10:10;;;;;;;;;;;;;;;27.73;39.80;97391.09;5086584;28;20321;-72
2022/06/16 13:12:43;;;;;;;;;;;;;;;27.61;38.87;97384.47;5087961;28;19939;-71
2022/06/16 13:15:13;;;;;;;;;;;;;;;27.71;38.85;97387.78;5087214;28;20023;-71
2022/06/16 13:17:52;;;;;;;;;;;;;;;27.68;39.20;97387.25;5068979;28;20378;-70
2022/06/16 13:20:20;;;;;;;;;;;;;;;27.00;39.32;97392.84;5088078;28;20389;-71
2022/06/16 13:22:58;;;;;;;;;;;;;;;27.00;39.73;97392.00;5086164;28;19924;-70
2022/06/16 13:25:44;;;;;;;;;;;;;;;27.32;39.05;97392.06;5087831;28;19920;-71
2022/06/16 13:28:31;;;;;;;;;;;;;;;27.46;38.97;97380.81;5087193;28;19920;-71
2022/06/16 13:31:13;;;;;;;;;;;;;;;27.60;39.46;97381.94;5074757;28;20362;-70